Aérodrome :
LOGIN :

S'inscrire | Disclaimer

   EN    FR    IT 

 










Légende :    VFR   VFR Marginal   IFR   IFR Intensif   IFR Très Intensif
Visi : 
Plafond : 
>= 8 km
>= 3000ft
5 à 8 km
1000 à 3000 ft
1500m à 5 km
500 à 1000 ft
800 à 1500m
200 à 500 ft
< 800m
< 200 ft
Symboles :   Orages  Brouillard  Fortes neiges  Fortes précipitations  Vent > 20 kt
SIGMETs :   Divers  Orages  Givrage  Turbulence  Onde Orograph.  Cendres Volcan.







- Altitude de l'aérodrome : 1778 ft
- Code IATA : VVZ


DAAP - Takhamalt

DERNIER METAR :
  • 191200Z 29012KT 8000 NSC 42/13 Q1014

METARs EXPIRÉS :
  • 191100Z 00000KT 8000 NSC 40/15 Q1014
  • 191000Z 13004KT 8000 NSC 39/14 Q1015

TAF TAF DAAP
Valide du 19 à 12h jusqu'au 19 à 21h UTC


191100Z 1912/1921 18008KT 8000 FEW046
BECMG 1913/1917 36012KT
PROB40
TEMPO 1914/1919 36015G30KT 3000 DRSA FEW040CB
Pas de NOTAMs connus pour ce terrain.



MET'MAP, la Météo Aéronautique d'un coup d'oeil ! - Copyright ORBIFLY Décembre 2007 - Disclaimer

ORBIFLY MET'MAP TEAM :

Programmation & Développement : Alexandra Zaïnal
Conception & Développement : Baudouin d'Aumeries
Co-Programmation & Développement : Marc-Olivier Méhu
Soutien technique & logistique : Manuel Goepfert

Contact : metmap@orbifly.com




SOURCES & CREDITS :

   NOAA